createdAt,value
2019-02-12T00:00:16.785Z,41.30
2019-02-12T00:02:45.672Z,37.33
2019-02-12T00:05:14.490Z,40.33
2019-02-12T00:07:43.370Z,38.07
2019-02-12T00:10:12.226Z,40.37
2019-02-12T00:12:41.097Z,42.13
2019-02-12T00:15:09.993Z,37.37
2019-02-12T00:17:38.894Z,39.93
2019-02-12T00:20:08.571Z,38.60
2019-02-12T00:22:37.483Z,45.78
2019-02-12T00:25:08.292Z,38.43
2019-02-12T00:27:37.338Z,39.27
2019-02-12T00:30:10.823Z,37.67
2019-02-12T00:32:39.664Z,39.83
2019-02-12T00:35:08.689Z,36.60
2019-02-12T00:37:37.760Z,34.83
2019-02-12T00:40:09.176Z,40.20
2019-02-12T00:42:38.047Z,34.90
2019-02-12T00:45:11.424Z,36.37
2019-02-12T00:47:40.246Z,38.40
2019-02-12T00:50:11.172Z,38.77
2019-02-12T00:52:40.050Z,34.57
2019-02-12T00:55:09.350Z,35.67
2019-02-12T00:57:40.191Z,36.83
2019-02-12T01:00:12.025Z,37.50
2019-02-12T01:02:40.873Z,35.13
2019-02-12T01:05:09.836Z,42.37
2019-02-12T01:07:38.710Z,44.35
2019-02-12T01:10:10.511Z,40.40
2019-02-12T01:12:39.365Z,38.40
2019-02-12T01:15:13.580Z,39.97
2019-02-12T01:17:42.421Z,38.80
2019-02-12T01:20:13.856Z,37.77
2019-02-12T01:22:42.833Z,43.83
2019-02-12T01:25:11.688Z,36.00
2019-02-12T01:27:40.543Z,39.93
2019-02-12T01:30:12.281Z,37.07
2019-02-12T01:32:41.103Z,37.30
2019-02-12T01:35:09.994Z,36.23
2019-02-12T01:37:38.898Z,34.80
2019-02-12T01:40:09.960Z,35.60
2019-02-12T01:42:38.789Z,35.53
2019-02-12T01:45:10.007Z,37.20
2019-02-12T01:47:38.810Z,35.87
2019-02-12T01:50:10.088Z,40.87
2019-02-12T01:52:38.957Z,38.13
2019-02-12T01:55:07.910Z,37.87
2019-02-12T01:57:36.741Z,39.07
2019-02-12T02:00:08.518Z,35.30
2019-02-12T02:02:37.350Z,39.00
2019-02-12T02:05:08.589Z,35.27
2019-02-12T02:07:37.775Z,35.00
2019-02-12T02:10:12.267Z,40.10
2019-02-12T02:12:41.176Z,35.47
2019-02-12T02:15:11.980Z,34.77
2019-02-12T02:17:40.805Z,35.13
2019-02-12T02:20:12.333Z,37.93
2019-02-12T02:22:41.178Z,35.50
2019-02-12T02:25:11.921Z,37.27
2019-02-12T02:27:40.809Z,42.05
2019-02-12T02:30:12.153Z,34.80
2019-02-12T02:32:41.029Z,31.07
2019-02-12T02:35:10.074Z,33.43
2019-02-12T02:37:38.888Z,30.87
2019-02-12T02:40:09.983Z,36.90
2019-02-12T02:42:38.841Z,35.33
2019-02-12T02:45:10.270Z,33.23
2019-02-12T02:47:39.127Z,37.70
2019-02-12T02:50:09.963Z,33.03
2019-02-12T02:52:38.901Z,33.10
2019-02-12T02:55:09.048Z,36.83
2019-02-12T02:57:37.927Z,32.47
2019-02-12T03:00:11.626Z,33.87
2019-02-12T03:02:40.540Z,34.33
2019-02-12T03:05:11.433Z,32.80
2019-02-12T03:07:40.290Z,30.97
2019-02-12T03:10:10.469Z,32.37
2019-02-12T03:12:39.331Z,29.93
2019-02-12T03:15:11.928Z,30.50
2019-02-12T03:17:40.768Z,32.83
2019-02-12T03:20:14.996Z,34.57
2019-02-12T03:22:43.884Z,37.17
2019-02-12T03:25:12.714Z,30.30
2019-02-12T03:27:41.539Z,30.80
2019-02-12T03:30:12.826Z,30.00
2019-02-12T03:32:41.947Z,31.37
2019-02-12T03:35:11.225Z,33.60
2019-02-12T03:37:40.121Z,33.47
2019-02-12T03:40:12.714Z,31.63
2019-02-12T03:42:41.558Z,31.57
2019-02-12T03:45:12.977Z,33.13
2019-02-12T03:47:41.801Z,38.38
2019-02-12T03:50:12.049Z,32.30
2019-02-12T03:52:40.949Z,34.27
2019-02-12T03:55:13.776Z,39.87
2019-02-12T03:57:42.978Z,33.40
2019-02-12T04:00:14.262Z,35.43
2019-02-12T04:03:02.322Z,28.93
2019-02-12T04:05:31.258Z,32.90
2019-02-12T04:08:00.283Z,32.33
2019-02-12T04:10:29.178Z,30.60
2019-02-12T04:12:58.011Z,33.03
2019-02-12T04:15:26.832Z,33.98
2019-02-12T04:17:55.742Z,31.10
2019-02-12T04:20:24.674Z,31.93
2019-02-12T04:22:53.525Z,32.27
2019-02-12T04:25:22.431Z,27.90
2019-02-12T04:27:51.301Z,31.63
2019-02-12T04:30:20.129Z,31.80
2019-02-12T04:32:49.064Z,29.47
2019-02-12T04:35:17.909Z,25.77
2019-02-12T04:37:46.749Z,28.80
2019-02-12T04:40:15.661Z,26.23
2019-02-12T04:42:44.498Z,31.63
2019-02-12T04:45:15.483Z,29.67
2019-02-12T04:47:44.323Z,31.03
2019-02-12T04:50:15.096Z,29.17
2019-02-12T04:52:43.939Z,29.27
2019-02-12T04:55:13.024Z,25.50
2019-02-12T04:57:41.891Z,25.90
2019-02-12T05:00:18.122Z,28.80
2019-02-12T05:02:46.944Z,29.95
2019-02-12T05:05:15.798Z,30.97
2019-02-12T05:07:44.715Z,26.30
2019-02-12T05:10:25.210Z,26.37
2019-02-12T05:12:54.180Z,29.77
2019-02-12T05:15:22.968Z,30.13
2019-02-12T05:17:51.859Z,28.83
2019-02-12T05:20:20.724Z,31.73
2019-02-12T05:22:49.611Z,29.20
2019-02-12T05:25:18.452Z,30.03
2019-02-12T05:27:47.404Z,28.57
2019-02-12T05:30:16.280Z,36.90
2019-02-12T05:32:45.099Z,27.87
2019-02-12T05:35:14.007Z,28.40
2019-02-12T05:37:42.837Z,27.53
2019-02-12T05:40:12.262Z,27.60
2019-02-12T05:42:41.338Z,31.70
2019-02-12T05:45:13.965Z,29.67
2019-02-12T05:47:45.592Z,28.50
2019-02-12T05:50:17.420Z,31.97
2019-02-12T05:52:53.864Z,33.33
2019-02-12T05:55:16.793Z,28.97
2019-02-12T05:57:45.631Z,31.90
2019-02-12T06:00:20.479Z,31.03
2019-02-12T06:02:49.315Z,31.07
2019-02-12T06:05:26.285Z,34.00
2019-02-12T06:07:55.136Z,29.73
2019-02-12T06:10:24.074Z,26.73
2019-02-12T06:12:53.036Z,31.60
2019-02-12T06:15:21.841Z,35.10
2019-02-12T06:17:50.963Z,32.13
2019-02-12T06:20:21.323Z,25.50
2019-02-12T06:22:50.112Z,30.30
2019-02-12T06:25:19.010Z,27.53
2019-02-12T06:27:49.454Z,27.30
2019-02-12T06:30:18.317Z,36.20
2019-02-12T06:32:47.193Z,31.37
2019-02-12T06:35:16.122Z,29.27
2019-02-12T06:37:46.584Z,30.80
2019-02-12T06:40:15.417Z,24.93
2019-02-12T06:42:44.324Z,27.53
2019-02-12T06:45:13.954Z,28.73
2019-02-12T06:47:42.846Z,29.53
2019-02-12T06:50:13.929Z,26.33
2019-02-12T06:52:42.878Z,30.37
2019-02-12T06:55:12.381Z,28.03
2019-02-12T06:57:41.271Z,27.93
2019-02-12T07:00:15.550Z,42.67
2019-02-12T07:03:16.445Z,34.67
2019-02-12T07:05:57.050Z,29.67
2019-02-12T07:08:34.583Z,38.90
2019-02-12T07:11:32.080Z,30.40
2019-02-12T07:14:23.745Z,27.13
2019-02-12T07:17:13.754Z,31.80
2019-02-12T07:19:51.365Z,31.50
2019-02-12T07:22:28.810Z,31.47
2019-02-12T07:25:00.624Z,29.13
2019-02-12T07:27:35.350Z,29.30
2019-02-12T07:30:25.347Z,31.00
2019-02-12T07:32:59.878Z,33.57
2019-02-12T07:35:48.268Z,29.60
2019-02-12T07:38:41.249Z,30.63
2019-02-12T07:41:28.144Z,27.43
2019-02-12T07:44:08.814Z,31.23
2019-02-12T07:46:58.654Z,33.37
2019-02-12T07:49:39.395Z,30.23
2019-02-12T07:52:17.243Z,32.83
2019-02-12T07:54:51.922Z,32.03
2019-02-12T07:57:49.241Z,30.67
2019-02-12T08:00:43.261Z,29.70
2019-02-12T08:03:18.267Z,27.60
2019-02-12T08:06:07.759Z,30.37
2019-02-12T08:09:05.069Z,27.67
2019-02-12T08:11:39.334Z,33.73
2019-02-12T08:14:19.913Z,33.10
2019-02-12T08:17:03.407Z,30.87
2019-02-12T08:19:59.608Z,36.20
2019-02-12T08:22:34.201Z,38.00
2019-02-12T08:25:06.002Z,34.90
2019-02-12T08:27:40.348Z,35.53
2019-02-12T08:30:12.185Z,33.03
2019-02-12T08:32:49.711Z,30.90
2019-02-12T08:35:27.392Z,34.93
2019-02-12T08:38:10.986Z,33.47
2019-02-12T08:40:45.692Z,35.57
2019-02-12T08:43:32.498Z,36.77
2019-02-12T08:46:04.331Z,34.00
2019-02-12T08:48:57.144Z,34.33
2019-02-12T08:51:43.642Z,29.23
2019-02-12T08:54:34.863Z,30.90
2019-02-12T08:57:06.711Z,35.30
2019-02-12T08:59:54.515Z,31.57
2019-02-12T09:02:37.921Z,30.83
2019-02-12T09:05:12.394Z,34.78
2019-02-12T09:08:05.146Z,30.97
2019-02-12T09:10:40.485Z,30.83
2019-02-12T09:13:33.131Z,32.17
2019-02-12T09:16:22.814Z,28.47
2019-02-12T09:19:11.385Z,38.73
2019-02-12T09:21:49.028Z,32.97
2019-02-12T09:24:22.641Z,29.53
2019-02-12T09:27:16.373Z,28.80
2019-02-12T09:29:52.232Z,31.27
2019-02-12T09:32:30.451Z,27.73
2019-02-12T09:35:14.919Z,35.27
2019-02-12T09:38:07.506Z,27.87
2019-02-12T09:40:57.339Z,26.43
2019-02-12T09:43:29.108Z,29.87
2019-02-12T09:46:18.796Z,30.57
2019-02-12T09:49:08.593Z,34.93
2019-02-12T09:51:49.270Z,31.37
2019-02-12T09:54:37.524Z,27.37
2019-02-12T09:57:18.388Z,37.30
2019-02-12T09:59:58.943Z,27.87
2019-02-12T10:02:45.846Z,30.10
2019-02-12T10:05:37.333Z,27.00
2019-02-12T10:08:24.045Z,28.70
2019-02-12T10:11:12.282Z,35.77
2019-02-12T10:13:58.553Z,29.10
2019-02-12T10:16:42.091Z,31.43
2019-02-12T10:19:23.022Z,34.57
2019-02-12T10:21:54.821Z,37.27
2019-02-12T10:24:38.523Z,31.87
2019-02-12T10:27:22.083Z,36.25
2019-02-12T10:30:15.282Z,29.50
2019-02-12T10:32:44.218Z,28.47
2019-02-12T10:35:14.078Z,27.53
2019-02-12T10:37:43.038Z,27.17
2019-02-12T10:40:11.849Z,28.03
2019-02-12T10:42:40.759Z,24.90
2019-02-12T10:45:09.929Z,30.53
2019-02-12T10:47:38.800Z,23.97
2019-02-12T10:50:09.086Z,31.90
2019-02-12T10:52:37.937Z,28.63
2019-02-12T10:55:07.082Z,29.73
2019-02-12T10:57:35.996Z,28.32
2019-02-12T11:00:07.762Z,30.60
2019-02-12T11:02:36.649Z,26.37
2019-02-12T11:05:06.385Z,23.67
2019-02-12T11:07:35.953Z,27.53
2019-02-12T11:10:07.617Z,29.30
2019-02-12T11:12:36.435Z,24.17
2019-02-12T11:15:10.005Z,43.40
2019-02-12T11:17:38.913Z,23.23
2019-02-12T11:20:09.784Z,27.63
2019-02-12T11:22:38.686Z,22.93
2019-02-12T11:25:09.185Z,23.83
2019-02-12T11:27:38.016Z,25.10
2019-02-12T11:30:09.797Z,28.40
2019-02-12T11:32:38.600Z,29.67
2019-02-12T11:35:10.477Z,24.83
2019-02-12T11:37:39.341Z,23.03
2019-02-12T11:40:13.462Z,25.23
2019-02-12T11:42:42.593Z,26.83
2019-02-12T11:45:15.347Z,23.60
2019-02-12T11:47:44.241Z,26.60
2019-02-12T11:50:13.146Z,30.33
2019-02-12T11:52:42.073Z,20.43
2019-02-12T11:55:13.005Z,24.73
2019-02-12T11:57:41.844Z,22.83
2019-02-12T12:00:17.613Z,21.90
2019-02-12T12:02:46.426Z,25.47
2019-02-12T12:05:15.257Z,20.77
2019-02-12T12:07:44.157Z,23.17
2019-02-12T12:10:13.033Z,27.13
2019-02-12T12:12:41.915Z,23.37
2019-02-12T12:15:13.073Z,23.50
2019-02-12T12:17:41.904Z,26.90
2019-02-12T12:20:13.638Z,26.37
2019-02-12T12:22:42.534Z,32.80
2019-02-12T12:25:12.907Z,26.33
2019-02-12T12:27:44.299Z,26.07
2019-02-12T12:30:15.792Z,24.27
2019-02-12T12:32:44.639Z,24.40
2019-02-12T12:35:13.493Z,24.53
2019-02-12T12:37:45.715Z,26.87
2019-02-12T12:40:14.546Z,25.57
2019-02-12T12:42:43.455Z,26.67
2019-02-12T12:45:15.516Z,26.67
2019-02-12T12:47:44.337Z,27.93
2019-02-12T12:50:13.677Z,24.47
2019-02-12T12:52:42.561Z,32.10
2019-02-12T12:55:12.814Z,29.60
2019-02-12T12:57:42.335Z,32.70
2019-02-12T13:00:13.605Z,28.07
2019-02-12T13:02:42.461Z,24.50
2019-02-12T13:05:11.347Z,32.47
2019-02-12T13:07:40.191Z,28.13
2019-02-12T13:10:16.945Z,32.47
2019-02-12T13:12:45.808Z,31.85
2019-02-12T13:15:15.552Z,29.47
2019-02-12T13:17:44.387Z,28.83
2019-02-12T13:20:18.173Z,30.07
2019-02-12T13:22:47.013Z,33.80
2019-02-12T13:25:17.377Z,28.27
2019-02-12T13:27:47.266Z,32.20
2019-02-12T13:30:19.276Z,29.40
2019-02-12T13:32:48.185Z,32.83
2019-02-12T13:35:17.026Z,28.67
2019-02-12T13:37:45.974Z,35.13
2019-02-12T13:40:14.935Z,32.87
2019-02-12T13:42:43.892Z,36.93
2019-02-12T13:45:14.831Z,26.83
2019-02-12T13:47:43.689Z,29.53
2019-02-12T13:50:14.119Z,35.07
2019-02-12T13:52:43.257Z,31.77
2019-02-12T13:55:17.515Z,34.33
2019-02-12T13:57:45.188Z,26.83
2019-02-12T14:00:18.622Z,35.37
2019-02-12T14:02:47.625Z,35.03
2019-02-12T14:05:21.916Z,30.70
2019-02-12T14:07:50.735Z,36.77
2019-02-12T14:10:19.635Z,35.07
2019-02-12T14:12:48.480Z,33.17
2019-02-12T14:15:17.345Z,42.40
2019-02-12T14:17:46.273Z,36.07
2019-02-12T14:20:16.319Z,32.67
2019-02-12T14:22:45.141Z,39.77
2019-02-12T14:25:24.936Z,34.90
2019-02-12T14:27:48.110Z,34.03
2019-02-12T14:30:21.778Z,35.57
2019-02-12T14:32:50.767Z,37.13
2019-02-12T14:35:19.596Z,35.60
2019-02-12T14:37:48.455Z,33.67
2019-02-12T14:40:21.240Z,32.03
2019-02-12T14:42:50.163Z,33.20
2019-02-12T14:48:14.568Z,32.63
2019-02-12T14:50:43.488Z,32.17
2019-02-12T14:53:12.328Z,34.50
2019-02-12T14:55:41.399Z,38.03
2019-02-12T14:58:10.886Z,35.70
2019-02-12T15:00:39.877Z,32.90
2019-02-12T15:03:08.827Z,38.30
2019-02-12T15:05:37.782Z,29.20
2019-02-12T15:08:08.475Z,33.43
2019-02-12T15:10:38.841Z,34.17
2019-02-12T15:13:08.158Z,33.73
2019-02-12T15:16:02.478Z,33.90
2019-02-12T15:18:31.335Z,29.17
2019-02-12T15:21:00.397Z,31.37
2019-02-12T15:23:29.291Z,30.83
2019-02-12T15:25:58.197Z,31.10
2019-02-12T15:28:27.190Z,44.93
2019-02-12T15:30:56.079Z,32.30
2019-02-12T15:33:24.950Z,40.03
2019-02-12T15:35:53.918Z,35.53
2019-02-12T15:38:23.757Z,35.93
2019-02-12T15:40:54.127Z,28.77
2019-02-12T15:43:23.197Z,33.20
2019-02-12T15:45:53.412Z,37.83
2019-02-12T15:48:22.423Z,33.10
2019-02-12T15:50:51.349Z,39.75
2019-02-12T15:53:21.988Z,28.03
2019-02-12T15:55:52.617Z,34.80
2019-02-12T15:58:21.678Z,36.27
2019-02-12T16:00:50.447Z,38.47
2019-02-12T16:03:20.552Z,33.50
2019-02-12T16:08:42.222Z,33.40
2019-02-12T16:11:12.638Z,29.97
2019-02-12T16:13:41.587Z,33.03
2019-02-12T16:16:10.530Z,30.87
2019-02-12T16:18:39.433Z,30.03
2019-02-12T16:21:08.409Z,36.60
2019-02-12T16:23:38.932Z,30.97
2019-02-12T16:26:09.304Z,31.10
2019-02-12T16:28:38.160Z,31.73
2019-02-12T16:31:07.105Z,33.73
2019-02-12T16:33:36.088Z,28.67
2019-02-12T16:36:04.959Z,38.53
2019-02-12T16:38:33.800Z,31.77
2019-02-12T16:41:04.609Z,32.87
2019-02-12T16:43:33.493Z,28.57
2019-02-12T16:46:08.828Z,31.93
2019-02-12T16:48:37.910Z,33.40
2019-02-12T16:51:06.786Z,30.40
2019-02-12T16:53:40.956Z,30.83
2019-02-12T16:56:09.872Z,35.57
2019-02-12T16:58:38.874Z,35.87
2019-02-12T17:01:18.068Z,29.97
2019-02-12T17:03:48.691Z,34.35
2019-02-12T17:06:19.211Z,30.57
2019-02-12T17:08:48.258Z,34.73
2019-02-12T17:11:19.058Z,31.50
2019-02-12T17:13:48.114Z,31.30
2019-02-12T17:16:17.749Z,29.80
2019-02-12T17:18:49.455Z,29.70
2019-02-12T17:21:18.565Z,29.83
2019-02-12T17:23:55.305Z,25.27
2019-02-12T17:26:26.637Z,30.20
2019-02-12T17:28:55.554Z,29.10
2019-02-12T17:34:15.247Z,32.78
2019-02-12T17:36:44.109Z,29.60
2019-02-12T17:39:13.780Z,29.67
2019-02-12T17:41:44.320Z,34.87
2019-02-12T17:44:16.293Z,30.33
2019-02-12T17:46:48.431Z,37.90
2019-02-12T17:49:17.356Z,36.10
2019-02-12T17:51:47.751Z,38.87
2019-02-12T18:05:40.109Z,28.37
2019-02-12T18:08:09.136Z,32.57
2019-02-12T18:10:38.150Z,31.70
2019-02-12T18:13:08.063Z,29.53
2019-02-12T18:15:40.194Z,29.20
2019-02-12T18:18:13.822Z,33.80
2019-02-12T18:20:43.350Z,37.60
2019-02-12T20:04:44.209Z,40.20
2019-02-12T20:07:13.054Z,39.87
2019-02-12T20:09:41.886Z,45.03
2019-02-12T20:12:10.764Z,41.57
2019-02-12T20:14:39.661Z,38.47
2019-02-12T20:17:08.498Z,42.13
2019-02-12T20:19:38.955Z,43.83
2019-02-12T20:22:07.822Z,47.07
2019-02-12T20:24:36.649Z,40.93
2019-02-12T20:27:06.765Z,42.83
2019-02-12T20:29:35.889Z,42.90
2019-02-12T20:32:07.245Z,45.93
2019-02-12T20:34:36.177Z,47.27
2019-02-12T20:37:05.008Z,43.13
2019-02-12T20:39:34.358Z,46.80
2019-02-12T20:44:51.998Z,45.37
2019-02-12T20:47:28.017Z,46.27
2019-02-12T20:50:04.330Z,42.37
2019-02-12T20:52:34.143Z,42.10
2019-02-12T20:55:04.387Z,44.13
2019-02-12T21:00:50.429Z,39.60
2019-02-12T21:03:22.082Z,36.40
2019-02-12T21:05:52.553Z,41.43
2019-02-12T21:08:22.987Z,41.57
2019-02-12T21:10:53.523Z,39.43
2019-02-12T21:13:24.183Z,41.63
2019-02-12T21:15:54.589Z,44.00
2019-02-12T21:18:25.092Z,54.67
2019-02-12T21:20:55.573Z,39.60
2019-02-12T21:23:26.053Z,41.97
2019-02-12T21:25:56.394Z,47.37
2019-02-12T21:28:26.871Z,50.85
2019-02-12T21:30:57.337Z,44.10
2019-02-12T21:33:27.726Z,42.97
2019-02-12T21:35:58.256Z,43.80
2019-02-12T21:38:28.683Z,40.40
2019-02-12T21:40:59.104Z,39.63
2019-02-12T21:43:29.542Z,42.00
2019-02-12T21:45:59.898Z,41.67
2019-02-12T21:48:30.443Z,45.40
2019-02-12T21:51:00.844Z,42.57
2019-02-12T21:53:31.369Z,45.87
2019-02-12T21:56:01.772Z,50.73
2019-02-12T21:58:32.137Z,51.53
2019-02-12T22:01:02.527Z,62.50
2019-02-12T22:03:32.980Z,65.13
2019-02-12T22:06:03.593Z,63.03
2019-02-12T22:08:33.933Z,64.00
2019-02-12T22:11:04.416Z,64.47
2019-02-12T22:13:34.773Z,67.67
2019-02-12T22:16:05.609Z,70.37
2019-02-12T22:18:36.183Z,67.17
2019-02-12T22:21:06.545Z,60.63
2019-02-12T22:23:36.920Z,61.20
2019-02-12T22:26:07.449Z,62.20
2019-02-12T22:28:37.839Z,61.27
2019-02-12T22:31:08.379Z,60.80
2019-02-12T22:33:39.122Z,61.33
2019-02-12T22:36:09.532Z,61.37
2019-02-12T22:38:39.920Z,64.43
2019-02-12T22:41:10.399Z,66.63
2019-02-12T22:43:42.223Z,69.30
2019-02-12T22:46:25.283Z,67.73
2019-02-12T22:48:56.795Z,65.87
2019-02-12T22:51:27.273Z,70.20
2019-02-12T22:53:57.650Z,71.50
2019-02-12T22:56:28.106Z,69.47
2019-02-12T22:58:58.505Z,72.00
2019-02-12T23:01:33.631Z,63.37
2019-02-12T23:04:07.193Z,66.37
2019-02-12T23:06:37.664Z,68.77
2019-02-12T23:09:10.629Z,63.37
2019-02-12T23:11:41.065Z,61.67
2019-02-12T23:14:11.478Z,60.97
2019-02-12T23:16:41.925Z,57.90
2019-02-12T23:19:13.241Z,60.67
2019-02-12T23:21:43.676Z,61.10
2019-02-12T23:24:14.101Z,60.63
2019-02-12T23:26:46.060Z,61.20
2019-02-12T23:29:16.561Z,64.20
2019-02-12T23:31:47.019Z,59.27
2019-02-12T23:34:17.420Z,60.23
2019-02-12T23:36:47.829Z,53.33
2019-02-12T23:39:18.279Z,65.42
2019-02-12T23:41:48.687Z,56.67
2019-02-12T23:44:19.124Z,58.30
2019-02-12T23:46:49.560Z,55.57
2019-02-12T23:49:20.071Z,52.63
2019-02-12T23:51:50.474Z,56.13
2019-02-12T23:54:20.896Z,53.43
2019-02-12T23:56:51.362Z,57.27
2019-02-12T23:59:21.813Z,59.37
